Attleboro, Massachusetts
Current Conditions -  °F | °C
As of 4:35 PM on Saturday 20 Dec 2014 (Local Time) from KSFZ Reporting Station
Overcast Overcast  
Wind Chill: -4°   Ceiling: 2200
Heat Index:   Visibility: 10mi
Dew Point: -6°   Wind: 9mph
Humidity: 64%   Direction: 10°N
Pressure: 30.24"   Gusts: NA
Location:  41.95°N, 71.28°W
Report Text: KSFZ 202135Z 01008KT 10SM BKN022 OVC033 00/M06 A3024 RMK AO1
Loading
Personal Weather Stations






























Interactive Weather Map New forecast layout! Learn more

10-Day Weather Forecast

Advertisements
Track Severe Weather on mobile